Main page
METAR-TAF:

METAR-TAF

Airports :

Chlef, Algeria

Chlef International Airport

latitude: 36-13N, longitude: 001-20E, elevation: 143 m

Current weather observation

The report was made 53 minutes ago, at 03:00 UTC
Calm wind
Temperature 18°C
Humidity 83%
Pressure 1020 hPa
Visibility 10 km or more
no clouds below 1500 m and no cumulonimbus

METAR: DAOI 200300Z 00000KT CAVOK 18/15 Q1020

Time: 04:53 (03:53 UTC)

Forecast

The report was made 4 hours and 53 minutes ago, at 23:00 UTC
Forecast valid from 20 at 00 UTC to 20 at 24 UTC
Wind 2 kt from variable directions
Visibility 10 km or more
Few clouds at a height of 2300 ft
Becoming
from 20 at 09 UTC to 20 at 12 UTC
Wind 12 kt from the Northeast
Visibility 10 km or more
no clouds below 1500 m and no cumulonimbus
Becoming
from 20 at 15 UTC to 20 at 18 UTC
Wind 8 kt from the East
Becoming
from 20 at 19 UTC to 20 at 21 UTC
Wind 2 kt from variable directions

TAF: DAOI 192300Z 2000/2024 VRB02KT 9999 FEW023 BECMG 2009/2012 04012KT CAVOK BECMG 2015/2018 08008KT BECMG 2019/2021 VRB02KT

Weather observations and forecasts of more than 4000 airports (METAR and TAF reports).

The available stations are represented by yellow and red dots on the map.

Hover mouse over dot to see the name of the station.

Then click to see weather observations and forecasts.

To change the map : click on the green buttons with a black cross to zoom in, on the green button with a dash to zoom out, or on the green arrows for adjacent maps.


METAR-TAF: